sensor_id;sensor_type;location;lat;lon;timestamp;P1;durP1;ratioP1;P2;durP2;ratioP2
51907;SDS011;39320;53.214;6.556;2022-12-31T00:01:48;1.92;;;1.52;;
51907;SDS011;39320;53.214;6.556;2022-12-31T00:04:14;1.75;;;1.42;;
51907;SDS011;39320;53.214;6.556;2022-12-31T00:06:40;2.55;;;1.50;;
51907;SDS011;39320;53.214;6.556;2022-12-31T00:09:06;2.38;;;1.60;;
51907;SDS011;39320;53.214;6.556;2022-12-31T00:11:33;2.00;;;1.40;;
51907;SDS011;39320;53.214;6.556;2022-12-31T00:14:00;1.15;;;1.05;;
51907;SDS011;39320;53.214;6.556;2022-12-31T00:16:30;1.67;;;1.17;;
51907;SDS011;39320;53.214;6.556;2022-12-31T00:19:01;2.17;;;1.50;;
51907;SDS011;39320;53.214;6.556;2022-12-31T00:21:28;2.33;;;1.30;;
51907;SDS011;39320;53.214;6.556;2022-12-31T00:23:55;2.25;;;1.40;;
51907;SDS011;39320;53.214;6.556;2022-12-31T00:26:23;1.70;;;1.30;;
51907;SDS011;39320;53.214;6.556;2022-12-31T00:28:51;1.83;;;1.40;;
51907;SDS011;39320;53.214;6.556;2022-12-31T00:31:22;1.35;;;1.05;;
51907;SDS011;39320;53.214;6.556;2022-12-31T00:33:52;1.50;;;1.30;;
51907;SDS011;39320;53.214;6.556;2022-12-31T00:36:19;1.95;;;1.27;;
51907;SDS011;39320;53.214;6.556;2022-12-31T00:38:48;2.22;;;1.70;;
51907;SDS011;39320;53.214;6.556;2022-12-31T00:41:15;2.25;;;1.50;;
51907;SDS011;39320;53.214;6.556;2022-12-31T00:43:42;2.58;;;1.38;;
51907;SDS011;39320;53.214;6.556;2022-12-31T00:46:09;2.63;;;1.60;;
51907;SDS011;39320;53.214;6.556;2022-12-31T00:48:35;2.92;;;1.60;;
51907;SDS011;39320;53.214;6.556;2022-12-31T00:51:02;3.60;;;1.65;;
51907;SDS011;39320;53.214;6.556;2022-12-31T00:53:30;3.00;;;1.70;;
51907;SDS011;39320;53.214;6.556;2022-12-31T00:55:59;1.88;;;1.65;;
51907;SDS011;39320;53.214;6.556;2022-12-31T00:58:33;1.85;;;1.60;;
51907;SDS011;39320;53.214;6.556;2022-12-31T01:01:13;2.53;;;1.80;;
51907;SDS011;39320;53.214;6.556;2022-12-31T01:03:51;3.08;;;1.85;;
51907;SDS011;39320;53.214;6.556;2022-12-31T01:06:19;3.03;;;1.67;;
51907;SDS011;39320;53.214;6.556;2022-12-31T01:08:49;2.10;;;1.77;;
51907;SDS011;39320;53.214;6.556;2022-12-31T01:11:17;3.22;;;1.70;;
51907;SDS011;39320;53.214;6.556;2022-12-31T01:13:51;3.97;;;2.05;;
51907;SDS011;39320;53.214;6.556;2022-12-31T01:16:18;4.60;;;1.50;;
51907;SDS011;39320;53.214;6.556;2022-12-31T01:18:46;2.00;;;1.75;;
51907;SDS011;39320;53.214;6.556;2022-12-31T01:21:13;1.85;;;1.60;;
51907;SDS011;39320;53.214;6.556;2022-12-31T01:23:39;2.05;;;1.70;;
51907;SDS011;39320;53.214;6.556;2022-12-31T01:26:06;2.53;;;1.70;;
51907;SDS011;39320;53.214;6.556;2022-12-31T01:28:33;2.38;;;1.73;;
51907;SDS011;39320;53.214;6.556;2022-12-31T01:31:06;3.97;;;1.85;;
51907;SDS011;39320;53.214;6.556;2022-12-31T01:33:35;2.08;;;1.75;;
51907;SDS011;39320;53.214;6.556;2022-12-31T01:36:06;3.45;;;1.67;;
51907;SDS011;39320;53.214;6.556;2022-12-31T01:38:34;1.80;;;1.48;;
51907;SDS011;39320;53.214;6.556;2022-12-31T01:41:01;2.30;;;1.50;;
51907;SDS011;39320;53.214;6.556;2022-12-31T01:43:41;2.42;;;1.67;;
51907;SDS011;39320;53.214;6.556;2022-12-31T01:46:09;2.05;;;1.38;;
51907;SDS011;39320;53.214;6.556;2022-12-31T01:48:38;1.95;;;1.35;;
51907;SDS011;39320;53.214;6.556;2022-12-31T01:51:04;3.22;;;1.70;;
51907;SDS011;39320;53.214;6.556;2022-12-31T01:53:32;3.08;;;1.55;;
51907;SDS011;39320;53.214;6.556;2022-12-31T01:55:58;2.63;;;1.67;;
51907;SDS011;39320;53.214;6.556;2022-12-31T01:58:26;2.33;;;1.55;;
51907;SDS011;39320;53.214;6.556;2022-12-31T02:00:56;2.72;;;1.60;;
51907;SDS011;39320;53.214;6.556;2022-12-31T02:03:23;1.85;;;1.50;;
51907;SDS011;39320;53.214;6.556;2022-12-31T02:05:55;2.70;;;1.65;;
51907;SDS011;39320;53.214;6.556;2022-12-31T02:08:33;2.28;;;1.83;;
51907;SDS011;39320;53.214;6.556;2022-12-31T02:11:00;2.85;;;1.73;;
51907;SDS011;39320;53.214;6.556;2022-12-31T02:13:26;2.42;;;1.40;;
51907;SDS011;39320;53.214;6.556;2022-12-31T02:30:18;1.25;;;1.23;;
51907;SDS011;39320;53.214;6.556;2022-12-31T02:32:54;1.58;;;1.48;;
51907;SDS011;39320;53.214;6.556;2022-12-31T02:35:56;1.60;;;1.30;;
51907;SDS011;39320;53.214;6.556;2022-12-31T02:38:26;1.95;;;1.42;;
51907;SDS011;39320;53.214;6.556;2022-12-31T02:40:55;2.33;;;1.60;;
51907;SDS011;39320;53.214;6.556;2022-12-31T02:43:22;1.90;;;1.40;;
51907;SDS011;39320;53.214;6.556;2022-12-31T02:46:14;2.85;;;1.42;;
51907;SDS011;39320;53.214;6.556;2022-12-31T02:48:48;1.50;;;1.38;;
51907;SDS011;39320;53.214;6.556;2022-12-31T02:51:41;1.50;;;1.40;;
51907;SDS011;39320;53.214;6.556;2022-12-31T02:56:57;1.40;;;1.00;;
51907;SDS011;39320;53.214;6.556;2022-12-31T02:59:39;1.42;;;1.20;;
51907;SDS011;39320;53.214;6.556;2022-12-31T03:02:27;1.23;;;1.13;;
51907;SDS011;39320;53.214;6.556;2022-12-31T03:04:55;2.83;;;1.23;;
51907;SDS011;39320;53.214;6.556;2022-12-31T03:07:22;2.45;;;1.27;;
51907;SDS011;39320;53.214;6.556;2022-12-31T03:09:53;1.92;;;1.80;;
51907;SDS011;39320;53.214;6.556;2022-12-31T03:12:20;1.83;;;1.20;;
51907;SDS011;39320;53.214;6.556;2022-12-31T03:15:07;1.92;;;1.35;;
51907;SDS011;39320;53.214;6.556;2022-12-31T03:17:46;1.20;;;1.10;;
51907;SDS011;39320;53.214;6.556;2022-12-31T03:20:16;1.42;;;1.08;;
51907;SDS011;39320;53.214;6.556;2022-12-31T03:23:05;1.13;;;0.95;;
51907;SDS011;39320;53.214;6.556;2022-12-31T03:25:37;1.58;;;1.17;;
51907;SDS011;39320;53.214;6.556;2022-12-31T03:30:36;1.92;;;1.00;;
51907;SDS011;39320;53.214;6.556;2022-12-31T03:33:04;1.92;;;1.20;;
51907;SDS011;39320;53.214;6.556;2022-12-31T03:35:31;1.08;;;0.70;;
51907;SDS011;39320;53.214;6.556;2022-12-31T03:37:58;0.85;;;0.85;;
51907;SDS011;39320;53.214;6.556;2022-12-31T03:40:24;1.27;;;0.93;;
51907;SDS011;39320;53.214;6.556;2022-12-31T03:42:52;1.13;;;1.05;;
51907;SDS011;39320;53.214;6.556;2022-12-31T03:45:17;1.40;;;0.70;;
51907;SDS011;39320;53.214;6.556;2022-12-31T03:47:44;1.48;;;1.00;;
51907;SDS011;39320;53.214;6.556;2022-12-31T03:50:10;1.63;;;0.95;;
51907;SDS011;39320;53.214;6.556;2022-12-31T03:52:38;1.42;;;0.80;;
51907;SDS011;39320;53.214;6.556;2022-12-31T03:55:04;1.00;;;0.80;;
51907;SDS011;39320;53.214;6.556;2022-12-31T03:57:30;1.55;;;0.80;;
51907;SDS011;39320;53.214;6.556;2022-12-31T03:59:56;0.82;;;0.82;;
51907;SDS011;39320;53.214;6.556;2022-12-31T04:02:22;0.90;;;0.80;;
51907;SDS011;39320;53.214;6.556;2022-12-31T04:04:48;0.60;;;0.60;;
51907;SDS011;39320;53.214;6.556;2022-12-31T04:07:14;1.10;;;0.60;;
51907;SDS011;39320;53.214;6.556;2022-12-31T04:09:40;1.17;;;0.75;;
51907;SDS011;39320;53.214;6.556;2022-12-31T04:12:06;0.90;;;0.88;;
51907;SDS011;39320;53.214;6.556;2022-12-31T04:14:31;0.70;;;0.70;;
51907;SDS011;39320;53.214;6.556;2022-12-31T04:16:57;0.73;;;0.63;;
51907;SDS011;39320;53.214;6.556;2022-12-31T04:19:23;1.45;;;0.88;;
51907;SDS011;39320;53.214;6.556;2022-12-31T04:21:48;1.38;;;0.70;;
51907;SDS011;39320;53.214;6.556;2022-12-31T04:24:14;1.52;;;0.80;;
51907;SDS011;39320;53.214;6.556;2022-12-31T04:26:40;0.90;;;0.73;;
51907;SDS011;39320;53.214;6.556;2022-12-31T04:29:07;0.95;;;0.90;;
51907;SDS011;39320;53.214;6.556;2022-12-31T04:31:33;0.98;;;0.70;;
51907;SDS011;39320;53.214;6.556;2022-12-31T04:33:59;0.90;;;0.57;;
51907;SDS011;39320;53.214;6.556;2022-12-31T04:36:25;1.02;;;0.80;;
51907;SDS011;39320;53.214;6.556;2022-12-31T04:38:50;1.08;;;0.82;;
51907;SDS011;39320;53.214;6.556;2022-12-31T04:41:16;0.82;;;0.70;;
51907;SDS011;39320;53.214;6.556;2022-12-31T04:43:43;0.82;;;0.82;;
51907;SDS011;39320;53.214;6.556;2022-12-31T04:46:11;1.30;;;0.77;;
51907;SDS011;39320;53.214;6.556;2022-12-31T04:48:37;1.48;;;0.90;;
51907;SDS011;39320;53.214;6.556;2022-12-31T04:51:02;1.42;;;0.93;;
51907;SDS011;39320;53.214;6.556;2022-12-31T04:53:28;1.08;;;0.98;;
51907;SDS011;39320;53.214;6.556;2022-12-31T04:55:55;1.13;;;0.73;;
51907;SDS011;39320;53.214;6.556;2022-12-31T04:58:21;1.50;;;0.73;;
51907;SDS011;39320;53.214;6.556;2022-12-31T05:00:47;0.93;;;0.93;;
51907;SDS011;39320;53.214;6.556;2022-12-31T05:03:16;1.80;;;1.35;;
51907;SDS011;39320;53.214;6.556;2022-12-31T05:05:43;1.38;;;0.80;;
51907;SDS011;39320;53.214;6.556;2022-12-31T05:08:09;1.08;;;0.93;;
51907;SDS011;39320;53.214;6.556;2022-12-31T05:10:35;1.38;;;0.88;;
51907;SDS011;39320;53.214;6.556;2022-12-31T05:13:05;1.42;;;0.85;;
51907;SDS011;39320;53.214;6.556;2022-12-31T05:15:30;0.93;;;0.80;;
51907;SDS011;39320;53.214;6.556;2022-12-31T05:18:02;0.75;;;0.75;;
51907;SDS011;39320;53.214;6.556;2022-12-31T05:20:28;0.73;;;0.73;;
51907;SDS011;39320;53.214;6.556;2022-12-31T05:22:54;1.67;;;0.90;;
51907;SDS011;39320;53.214;6.556;2022-12-31T05:25:20;1.00;;;0.70;;
51907;SDS011;39320;53.214;6.556;2022-12-31T05:27:46;1.08;;;0.90;;
51907;SDS011;39320;53.214;6.556;2022-12-31T05:30:12;1.10;;;0.90;;
51907;SDS011;39320;53.214;6.556;2022-12-31T05:32:38;1.13;;;0.88;;
51907;SDS011;39320;53.214;6.556;2022-12-31T05:35:04;0.90;;;0.82;;
51907;SDS011;39320;53.214;6.556;2022-12-31T05:37:31;1.27;;;1.00;;
51907;SDS011;39320;53.214;6.556;2022-12-31T05:39:57;1.10;;;0.90;;
51907;SDS011;39320;53.214;6.556;2022-12-31T05:42:23;1.17;;;0.90;;
51907;SDS011;39320;53.214;6.556;2022-12-31T05:44:48;1.15;;;1.05;;
51907;SDS011;39320;53.214;6.556;2022-12-31T05:47:14;1.58;;;0.85;;
51907;SDS011;39320;53.214;6.556;2022-12-31T05:49:40;1.33;;;1.00;;
51907;SDS011;39320;53.214;6.556;2022-12-31T05:52:06;0.80;;;0.80;;
51907;SDS011;39320;53.214;6.556;2022-12-31T05:54:31;1.25;;;0.90;;
51907;SDS011;39320;53.214;6.556;2022-12-31T05:56:57;1.60;;;0.98;;
51907;SDS011;39320;53.214;6.556;2022-12-31T05:59:23;1.55;;;1.10;;
51907;SDS011;39320;53.214;6.556;2022-12-31T06:01:49;1.25;;;1.00;;
51907;SDS011;39320;53.214;6.556;2022-12-31T06:04:15;1.55;;;0.80;;
51907;SDS011;39320;53.214;6.556;2022-12-31T06:06:41;1.95;;;1.23;;
51907;SDS011;39320;53.214;6.556;2022-12-31T06:09:06;1.15;;;1.05;;
51907;SDS011;39320;53.214;6.556;2022-12-31T06:11:32;0.60;;;0.60;;
51907;SDS011;39320;53.214;6.556;2022-12-31T06:13:58;1.20;;;1.10;;
51907;SDS011;39320;53.214;6.556;2022-12-31T06:16:24;2.13;;;0.88;;
51907;SDS011;39320;53.214;6.556;2022-12-31T06:18:51;1.83;;;0.98;;
51907;SDS011;39320;53.214;6.556;2022-12-31T06:21:17;2.20;;;0.95;;
51907;SDS011;39320;53.214;6.556;2022-12-31T06:23:44;1.48;;;0.80;;
51907;SDS011;39320;53.214;6.556;2022-12-31T06:26:10;1.30;;;1.00;;
51907;SDS011;39320;53.214;6.556;2022-12-31T06:28:35;0.90;;;0.60;;
51907;SDS011;39320;53.214;6.556;2022-12-31T06:31:02;1.30;;;0.90;;
51907;SDS011;39320;53.214;6.556;2022-12-31T06:33:30;0.70;;;0.70;;
51907;SDS011;39320;53.214;6.556;2022-12-31T06:35:57;0.95;;;0.70;;
51907;SDS011;39320;53.214;6.556;2022-12-31T06:38:24;1.55;;;0.50;;
51907;SDS011;39320;53.214;6.556;2022-12-31T06:40:50;0.52;;;0.52;;
51907;SDS011;39320;53.214;6.556;2022-12-31T06:43:16;0.50;;;0.50;;
51907;SDS011;39320;53.214;6.556;2022-12-31T06:45:42;0.57;;;0.50;;
51907;SDS011;39320;53.214;6.556;2022-12-31T06:48:08;0.40;;;0.40;;
51907;SDS011;39320;53.214;6.556;2022-12-31T06:50:34;0.80;;;0.63;;
51907;SDS011;39320;53.214;6.556;2022-12-31T06:53:00;0.47;;;0.47;;
51907;SDS011;39320;53.214;6.556;2022-12-31T06:55:26;0.93;;;0.75;;
51907;SDS011;39320;53.214;6.556;2022-12-31T06:57:52;0.57;;;0.57;;
51907;SDS011;39320;53.214;6.556;2022-12-31T07:00:18;0.70;;;0.70;;
51907;SDS011;39320;53.214;6.556;2022-12-31T07:05:51;0.70;;;0.65;;
51907;SDS011;39320;53.214;6.556;2022-12-31T07:09:06;1.27;;;0.70;;
51907;SDS011;39320;53.214;6.556;2022-12-31T07:11:34;0.98;;;0.98;;
51907;SDS011;39320;53.214;6.556;2022-12-31T07:20:08;1.60;;;1.40;;
51907;SDS011;39320;53.214;6.556;2022-12-31T07:22:39;0.88;;;0.88;;
51907;SDS011;39320;53.214;6.556;2022-12-31T07:25:05;1.00;;;1.00;;
51907;SDS011;39320;53.214;6.556;2022-12-31T07:30:14;1.30;;;1.20;;
51907;SDS011;39320;53.214;6.556;2022-12-31T07:35:55;0.90;;;0.90;;
51907;SDS011;39320;53.214;6.556;2022-12-31T07:46:57;0.90;;;0.90;;
51907;SDS011;39320;53.214;6.556;2022-12-31T07:49:25;1.77;;;0.90;;
51907;SDS011;39320;53.214;6.556;2022-12-31T07:51:53;0.75;;;0.75;;
51907;SDS011;39320;53.214;6.556;2022-12-31T07:54:19;0.80;;;0.80;;
51907;SDS011;39320;53.214;6.556;2022-12-31T07:56:46;0.98;;;0.90;;
51907;SDS011;39320;53.214;6.556;2022-12-31T07:59:27;0.70;;;0.70;;
51907;SDS011;39320;53.214;6.556;2022-12-31T08:05:26;0.73;;;0.73;;
51907;SDS011;39320;53.214;6.556;2022-12-31T08:13:09;0.90;;;0.90;;
51907;SDS011;39320;53.214;6.556;2022-12-31T08:15:37;0.70;;;0.70;;
51907;SDS011;39320;53.214;6.556;2022-12-31T08:18:04;0.85;;;0.85;;
51907;SDS011;39320;53.214;6.556;2022-12-31T08:20:31;0.90;;;0.90;;
51907;SDS011;39320;53.214;6.556;2022-12-31T08:28:41;0.57;;;0.57;;
51907;SDS011;39320;53.214;6.556;2022-12-31T08:31:24;0.57;;;0.57;;
51907;SDS011;39320;53.214;6.556;2022-12-31T08:33:56;0.70;;;0.70;;
51907;SDS011;39320;53.214;6.556;2022-12-31T08:42:19;0.60;;;0.60;;
51907;SDS011;39320;53.214;6.556;2022-12-31T08:47:37;0.47;;;0.40;;
51907;SDS011;39320;53.214;6.556;2022-12-31T08:50:22;0.40;;;0.40;;
51907;SDS011;39320;53.214;6.556;2022-12-31T08:52:48;0.50;;;0.50;;
51907;SDS011;39320;53.214;6.556;2022-12-31T08:55:15;0.50;;;0.50;;
51907;SDS011;39320;53.214;6.556;2022-12-31T09:00:23;0.70;;;0.70;;
51907;SDS011;39320;53.214;6.556;2022-12-31T09:13:46;0.68;;;0.65;;
51907;SDS011;39320;53.214;6.556;2022-12-31T09:16:41;1.08;;;1.00;;
51907;SDS011;39320;53.214;6.556;2022-12-31T09:19:17;1.02;;;1.02;;
51907;SDS011;39320;53.214;6.556;2022-12-31T09:21:43;0.80;;;0.80;;
51907;SDS011;39320;53.214;6.556;2022-12-31T09:24:12;0.88;;;0.88;;
51907;SDS011;39320;53.214;6.556;2022-12-31T09:31:58;0.80;;;0.80;;
51907;SDS011;39320;53.214;6.556;2022-12-31T09:34:42;0.65;;;0.65;;
51907;SDS011;39320;53.214;6.556;2022-12-31T09:46:02;0.68;;;0.68;;
51907;SDS011;39320;53.214;6.556;2022-12-31T09:57:17;0.75;;;0.65;;
51907;SDS011;39320;53.214;6.556;2022-12-31T09:59:59;1.05;;;0.60;;
51907;SDS011;39320;53.214;6.556;2022-12-31T10:19:58;0.88;;;0.77;;
51907;SDS011;39320;53.214;6.556;2022-12-31T10:27:48;1.37;;;0.60;;
51907;SDS011;39320;53.214;6.556;2022-12-31T10:30:24;0.80;;;0.63;;
51907;SDS011;39320;53.214;6.556;2022-12-31T10:35:37;1.25;;;0.93;;
51907;SDS011;39320;53.214;6.556;2022-12-31T10:38:42;1.63;;;0.60;;
51907;SDS011;39320;53.214;6.556;2022-12-31T10:44:38;0.85;;;0.60;;
51907;SDS011;39320;53.214;6.556;2022-12-31T11:01:18;1.85;;;0.90;;
51907;SDS011;39320;53.214;6.556;2022-12-31T11:17:53;1.75;;;0.98;;
51907;SDS011;39320;53.214;6.556;2022-12-31T11:31:47;2.38;;;1.05;;
51907;SDS011;39320;53.214;6.556;2022-12-31T11:40:26;2.63;;;1.00;;
51907;SDS011;39320;53.214;6.556;2022-12-31T11:57:37;2.07;;;1.20;;
51907;SDS011;39320;53.214;6.556;2022-12-31T12:00:14;1.55;;;0.93;;
51907;SDS011;39320;53.214;6.556;2022-12-31T12:02:47;1.10;;;0.60;;
51907;SDS011;39320;53.214;6.556;2022-12-31T12:05:15;1.42;;;0.80;;
51907;SDS011;39320;53.214;6.556;2022-12-31T12:07:44;1.85;;;1.20;;
51907;SDS011;39320;53.214;6.556;2022-12-31T12:12:49;1.63;;;0.85;;
51907;SDS011;39320;53.214;6.556;2022-12-31T12:15:17;1.02;;;0.70;;
51907;SDS011;39320;53.214;6.556;2022-12-31T12:17:54;1.70;;;1.10;;
51907;SDS011;39320;53.214;6.556;2022-12-31T12:20:31;1.05;;;0.90;;
51907;SDS011;39320;53.214;6.556;2022-12-31T12:23:01;1.08;;;0.82;;
51907;SDS011;39320;53.214;6.556;2022-12-31T12:25:38;1.42;;;0.90;;
51907;SDS011;39320;53.214;6.556;2022-12-31T12:28:27;2.20;;;1.13;;
51907;SDS011;39320;53.214;6.556;2022-12-31T12:30:59;1.35;;;0.90;;
51907;SDS011;39320;53.214;6.556;2022-12-31T12:33:29;1.45;;;1.20;;
51907;SDS011;39320;53.214;6.556;2022-12-31T12:36:10;2.75;;;1.10;;
51907;SDS011;39320;53.214;6.556;2022-12-31T12:38:37;1.88;;;1.13;;
51907;SDS011;39320;53.214;6.556;2022-12-31T12:41:04;1.30;;;1.15;;
51907;SDS011;39320;53.214;6.556;2022-12-31T12:43:34;2.13;;;1.10;;
51907;SDS011;39320;53.214;6.556;2022-12-31T12:46:18;1.75;;;1.30;;
51907;SDS011;39320;53.214;6.556;2022-12-31T12:48:54;2.10;;;1.40;;
51907;SDS011;39320;53.214;6.556;2022-12-31T12:57:03;2.58;;;0.85;;
51907;SDS011;39320;53.214;6.556;2022-12-31T12:59:38;1.50;;;1.05;;
51907;SDS011;39320;53.214;6.556;2022-12-31T13:04:50;1.40;;;1.15;;
51907;SDS011;39320;53.214;6.556;2022-12-31T13:10:32;1.25;;;0.90;;
51907;SDS011;39320;53.214;6.556;2022-12-31T13:13:35;1.92;;;1.20;;
51907;SDS011;39320;53.214;6.556;2022-12-31T13:21:56;1.67;;;1.27;;
51907;SDS011;39320;53.214;6.556;2022-12-31T13:27:35;2.08;;;1.00;;
51907;SDS011;39320;53.214;6.556;2022-12-31T13:32:44;1.88;;;0.98;;
51907;SDS011;39320;53.214;6.556;2022-12-31T13:35:20;1.50;;;1.00;;
51907;SDS011;39320;53.214;6.556;2022-12-31T13:37:55;1.27;;;1.10;;
51907;SDS011;39320;53.214;6.556;2022-12-31T13:46:16;2.70;;;1.00;;
51907;SDS011;39320;53.214;6.556;2022-12-31T13:48:55;1.52;;;1.25;;
51907;SDS011;39320;53.214;6.556;2022-12-31T13:51:32;1.25;;;0.90;;
51907;SDS011;39320;53.214;6.556;2022-12-31T13:54:15;1.77;;;1.33;;
51907;SDS011;39320;53.214;6.556;2022-12-31T13:56:49;1.75;;;1.20;;
51907;SDS011;39320;53.214;6.556;2022-12-31T13:59:26;1.30;;;0.70;;
51907;SDS011;39320;53.214;6.556;2022-12-31T14:04:41;1.95;;;0.90;;
51907;SDS011;39320;53.214;6.556;2022-12-31T14:07:21;0.82;;;0.75;;
51907;SDS011;39320;53.214;6.556;2022-12-31T14:09:52;1.60;;;1.08;;
51907;SDS011;39320;53.214;6.556;2022-12-31T14:17:47;1.15;;;0.70;;
51907;SDS011;39320;53.214;6.556;2022-12-31T14:23:15;0.85;;;0.73;;
51907;SDS011;39320;53.214;6.556;2022-12-31T14:28:24;1.30;;;1.20;;
51907;SDS011;39320;53.214;6.556;2022-12-31T14:32:06;0.50;;;0.50;;
51907;SDS011;39320;53.214;6.556;2022-12-31T14:34:01;0.85;;;0.60;;
51907;SDS011;39320;53.214;6.556;2022-12-31T14:36:41;0.60;;;0.57;;
51907;SDS011;39320;53.214;6.556;2022-12-31T14:39:36;1.00;;;0.60;;
51907;SDS011;39320;53.214;6.556;2022-12-31T14:48:44;0.50;;;0.50;;
51907;SDS011;39320;53.214;6.556;2022-12-31T14:50:51;0.50;;;0.50;;
51907;SDS011;39320;53.214;6.556;2022-12-31T14:53:20;0.88;;;0.85;;
51907;SDS011;39320;53.214;6.556;2022-12-31T14:55:55;0.50;;;0.50;;
51907;SDS011;39320;53.214;6.556;2022-12-31T14:58:52;0.50;;;0.50;;
51907;SDS011;39320;53.214;6.556;2022-12-31T15:01:20;0.50;;;0.50;;
51907;SDS011;39320;53.214;6.556;2022-12-31T15:03:46;0.50;;;0.50;;
51907;SDS011;39320;53.214;6.556;2022-12-31T15:17:07;0.50;;;0.50;;
51907;SDS011;39320;53.214;6.556;2022-12-31T15:19:44;0.40;;;0.40;;
51907;SDS011;39320;53.214;6.556;2022-12-31T15:22:39;0.85;;;0.70;;
51907;SDS011;39320;53.214;6.556;2022-12-31T15:25:32;0.40;;;0.40;;
51907;SDS011;39320;53.214;6.556;2022-12-31T15:28:02;0.70;;;0.70;;
51907;SDS011;39320;53.214;6.556;2022-12-31T15:30:43;0.40;;;0.40;;
51907;SDS011;39320;53.214;6.556;2022-12-31T15:33:17;0.55;;;0.55;;
51907;SDS011;39320;53.214;6.556;2022-12-31T15:36:07;0.40;;;0.40;;
51907;SDS011;39320;53.214;6.556;2022-12-31T15:38:45;0.47;;;0.47;;
51907;SDS011;39320;53.214;6.556;2022-12-31T15:41:24;0.50;;;0.50;;
51907;SDS011;39320;53.214;6.556;2022-12-31T15:46:22;0.80;;;0.80;;
51907;SDS011;39320;53.214;6.556;2022-12-31T15:48:54;0.57;;;0.57;;
51907;SDS011;39320;53.214;6.556;2022-12-31T15:51:28;2.10;;;2.00;;
51907;SDS011;39320;53.214;6.556;2022-12-31T15:54:37;2.08;;;1.92;;
51907;SDS011;39320;53.214;6.556;2022-12-31T15:57:10;2.63;;;2.13;;
51907;SDS011;39320;53.214;6.556;2022-12-31T15:59:40;1.80;;;1.40;;
51907;SDS011;39320;53.214;6.556;2022-12-31T16:02:22;1.27;;;1.17;;
51907;SDS011;39320;53.214;6.556;2022-12-31T16:04:49;0.88;;;0.88;;
51907;SDS011;39320;53.214;6.556;2022-12-31T16:07:16;1.15;;;1.10;;
51907;SDS011;39320;53.214;6.556;2022-12-31T16:09:45;1.30;;;1.20;;
51907;SDS011;39320;53.214;6.556;2022-12-31T16:12:17;1.35;;;1.25;;
51907;SDS011;39320;53.214;6.556;2022-12-31T16:14:50;1.40;;;1.30;;
51907;SDS011;39320;53.214;6.556;2022-12-31T16:17:28;1.40;;;1.30;;
51907;SDS011;39320;53.214;6.556;2022-12-31T16:19:59;1.05;;;0.70;;
51907;SDS011;39320;53.214;6.556;2022-12-31T16:22:43;1.00;;;0.80;;
51907;SDS011;39320;53.214;6.556;2022-12-31T16:25:20;0.80;;;0.68;;
51907;SDS011;39320;53.214;6.556;2022-12-31T16:27:49;1.20;;;0.73;;
51907;SDS011;39320;53.214;6.556;2022-12-31T16:32:46;1.75;;;1.40;;
51907;SDS011;39320;53.214;6.556;2022-12-31T16:35:20;1.85;;;1.45;;
51907;SDS011;39320;53.214;6.556;2022-12-31T16:37:58;1.17;;;1.05;;
51907;SDS011;39320;53.214;6.556;2022-12-31T16:40:28;1.27;;;1.17;;
51907;SDS011;39320;53.214;6.556;2022-12-31T16:42:54;1.35;;;1.17;;
51907;SDS011;39320;53.214;6.556;2022-12-31T16:45:33;2.05;;;1.88;;
51907;SDS011;39320;53.214;6.556;2022-12-31T16:48:07;1.98;;;1.58;;
51907;SDS011;39320;53.214;6.556;2022-12-31T16:50:42;2.17;;;1.40;;
51907;SDS011;39320;53.214;6.556;2022-12-31T16:53:09;1.40;;;1.30;;
51907;SDS011;39320;53.214;6.556;2022-12-31T16:55:41;1.92;;;1.65;;
51907;SDS011;39320;53.214;6.556;2022-12-31T17:00:46;2.05;;;1.70;;
51907;SDS011;39320;53.214;6.556;2022-12-31T17:03:18;1.70;;;1.60;;
51907;SDS011;39320;53.214;6.556;2022-12-31T17:11:16;1.75;;;1.60;;
51907;SDS011;39320;53.214;6.556;2022-12-31T17:13:55;1.98;;;1.50;;
51907;SDS011;39320;53.214;6.556;2022-12-31T17:17:18;2.55;;;1.50;;
51907;SDS011;39320;53.214;6.556;2022-12-31T17:24:59;1.25;;;1.08;;
51907;SDS011;39320;53.214;6.556;2022-12-31T17:27:28;2.85;;;1.48;;
51907;SDS011;39320;53.214;6.556;2022-12-31T17:30:16;2.50;;;2.30;;
51907;SDS011;39320;53.214;6.556;2022-12-31T17:32:59;3.83;;;3.53;;
51907;SDS011;39320;53.214;6.556;2022-12-31T17:35:31;1.98;;;1.88;;
51907;SDS011;39320;53.214;6.556;2022-12-31T17:38:46;2.70;;;2.50;;
51907;SDS011;39320;53.214;6.556;2022-12-31T17:41:00;1.50;;;1.15;;
51907;SDS011;39320;53.214;6.556;2022-12-31T17:43:30;1.80;;;1.70;;
51907;SDS011;39320;53.214;6.556;2022-12-31T17:45:57;1.88;;;1.77;;
51907;SDS011;39320;53.214;6.556;2022-12-31T17:48:23;1.27;;;1.08;;
51907;SDS011;39320;53.214;6.556;2022-12-31T17:50:50;1.52;;;1.20;;
51907;SDS011;39320;53.214;6.556;2022-12-31T17:53:20;2.10;;;1.95;;
51907;SDS011;39320;53.214;6.556;2022-12-31T17:55:47;2.28;;;2.08;;
51907;SDS011;39320;53.214;6.556;2022-12-31T17:58:29;2.70;;;2.50;;
51907;SDS011;39320;53.214;6.556;2022-12-31T18:01:01;3.42;;;3.22;;
51907;SDS011;39320;53.214;6.556;2022-12-31T18:03:29;3.63;;;3.33;;
51907;SDS011;39320;53.214;6.556;2022-12-31T18:05:55;2.50;;;2.30;;
51907;SDS011;39320;53.214;6.556;2022-12-31T18:08:21;2.53;;;2.33;;
51907;SDS011;39320;53.214;6.556;2022-12-31T18:10:48;2.90;;;1.90;;
51907;SDS011;39320;53.214;6.556;2022-12-31T18:13:16;2.60;;;2.40;;
51907;SDS011;39320;53.214;6.556;2022-12-31T18:15:48;3.67;;;3.38;;
51907;SDS011;39320;53.214;6.556;2022-12-31T18:20:50;2.90;;;2.70;;
51907;SDS011;39320;53.214;6.556;2022-12-31T18:23:40;2.22;;;1.80;;
51907;SDS011;39320;53.214;6.556;2022-12-31T18:26:20;4.47;;;4.07;;
51907;SDS011;39320;53.214;6.556;2022-12-31T18:28:47;4.20;;;3.90;;
51907;SDS011;39320;53.214;6.556;2022-12-31T18:31:23;2.75;;;2.55;;
51907;SDS011;39320;53.214;6.556;2022-12-31T18:33:51;3.70;;;3.40;;
51907;SDS011;39320;53.214;6.556;2022-12-31T18:36:19;2.08;;;1.98;;
51907;SDS011;39320;53.214;6.556;2022-12-31T18:38:46;2.58;;;2.35;;
51907;SDS011;39320;53.214;6.556;2022-12-31T18:41:16;2.42;;;2.17;;
51907;SDS011;39320;53.214;6.556;2022-12-31T18:43:45;2.53;;;2.33;;
51907;SDS011;39320;53.214;6.556;2022-12-31T18:46:11;3.33;;;3.03;;
51907;SDS011;39320;53.214;6.556;2022-12-31T18:48:38;2.80;;;2.60;;
51907;SDS011;39320;53.214;6.556;2022-12-31T18:51:12;2.30;;;2.17;;
51907;SDS011;39320;53.214;6.556;2022-12-31T18:53:39;2.10;;;1.80;;
51907;SDS011;39320;53.214;6.556;2022-12-31T18:56:05;1.77;;;1.58;;
51907;SDS011;39320;53.214;6.556;2022-12-31T18:58:34;2.05;;;1.95;;
51907;SDS011;39320;53.214;6.556;2022-12-31T19:00:59;1.50;;;1.40;;
51907;SDS011;39320;53.214;6.556;2022-12-31T19:03:25;1.95;;;1.83;;
51907;SDS011;39320;53.214;6.556;2022-12-31T19:05:52;2.45;;;1.90;;
51907;SDS011;39320;53.214;6.556;2022-12-31T19:08:19;1.85;;;1.65;;
51907;SDS011;39320;53.214;6.556;2022-12-31T19:10:46;1.92;;;1.73;;
51907;SDS011;39320;53.214;6.556;2022-12-31T19:13:14;1.42;;;1.33;;
51907;SDS011;39320;53.214;6.556;2022-12-31T19:15:45;1.58;;;1.48;;
51907;SDS011;39320;53.214;6.556;2022-12-31T19:18:13;2.00;;;1.83;;
51907;SDS011;39320;53.214;6.556;2022-12-31T19:20:39;1.90;;;1.80;;
51907;SDS011;39320;53.214;6.556;2022-12-31T19:23:05;1.77;;;1.67;;
51907;SDS011;39320;53.214;6.556;2022-12-31T19:25:43;2.17;;;2.08;;
51907;SDS011;39320;53.214;6.556;2022-12-31T19:28:15;1.60;;;1.50;;
51907;SDS011;39320;53.214;6.556;2022-12-31T19:30:42;1.67;;;1.58;;
51907;SDS011;39320;53.214;6.556;2022-12-31T19:33:09;1.65;;;1.55;;
51907;SDS011;39320;53.214;6.556;2022-12-31T19:35:34;2.13;;;1.45;;
51907;SDS011;39320;53.214;6.556;2022-12-31T19:38:00;3.55;;;3.35;;
51907;SDS011;39320;53.214;6.556;2022-12-31T19:40:27;2.28;;;2.08;;
51907;SDS011;39320;53.214;6.556;2022-12-31T19:42:55;1.65;;;1.40;;
51907;SDS011;39320;53.214;6.556;2022-12-31T19:45:22;1.73;;;1.63;;
51907;SDS011;39320;53.214;6.556;2022-12-31T19:47:53;1.55;;;1.45;;